SBOSBO OSR / LKMT
Speedbird OnlineSpeedbird Online OSR / LKMT

Ostrava Leos Janáček Airport
12:52 18.3°C

Location Ostrava, Czech Republic
Latitude: 49.6963005065918
Longitude: 18.111099243164062
Local Time 12:52 on 12 Apr 2024
UTC +2 hours (Europe/Prague)
Currency £1 equals 0.00
METAR LKMT 121030Z 29003KT 250V360 CAVOK 18/05 Q1031 NOSIG
TAF TAF LKMT 120500Z 1206/1306 21005KT CAVOK
Weather As Of 12 Apr 2024 12:52
Description Clear sky
Wind 6 km/h from West (290°)
Cloud Cover 0%
Precipitation Rain: none, Snow: none
Sunrise 06:00
Sunset 19:35
Web Airport Website | Wikipedia
Codes IATA: OSR
ICAO: LKMT
Altitude 257 Meter / 844 Feet
Distance 1,281 KM / 796 Miles
from London.
Runways
RunwayLength (m)Surface
043500Concrete
223500Concrete
Radio
TypeDescriptionFrequency
APP118.375
APPOSTRAVA APP119.375
APP128.525
ATISATIS118.055
TWRTWR120.805
Live ATC



Support Speedbird Online

© 2017-2024 Speedbird Online